createdAt,value
2023-05-21T00:01:56.863Z,13.10
2023-05-21T00:04:44.891Z,13.10
2023-05-21T00:07:33.257Z,13.10
2023-05-21T00:10:22.976Z,13.10
2023-05-21T00:13:12.208Z,13.10
2023-05-21T00:15:59.947Z,13.10
2023-05-21T00:18:49.817Z,13.00
2023-05-21T00:21:38.268Z,13.00
2023-05-21T00:24:25.957Z,13.00
2023-05-21T00:27:13.609Z,12.90
2023-05-21T00:30:02.731Z,12.90
2023-05-21T00:32:50.822Z,12.80
2023-05-21T00:35:39.064Z,12.80
2023-05-21T00:38:28.023Z,12.70
2023-05-21T00:41:16.667Z,12.70
2023-05-21T00:44:04.162Z,12.70
2023-05-21T00:46:54.716Z,12.60
2023-05-21T00:49:42.534Z,12.50
2023-05-21T00:52:30.390Z,12.40
2023-05-21T00:55:17.893Z,12.40
2023-05-21T00:58:05.656Z,12.30
2023-05-21T01:00:56.852Z,12.20
2023-05-21T01:03:48.856Z,12.20
2023-05-21T01:06:36.522Z,12.20
2023-05-21T01:09:24.001Z,12.10
2023-05-21T01:12:13.512Z,12.10
2023-05-21T01:15:02.662Z,12.10
2023-05-21T01:17:51.662Z,12.10
2023-05-21T01:20:42.672Z,12.10
2023-05-21T01:23:31.910Z,12.00
2023-05-21T01:26:19.350Z,11.90
2023-05-21T01:29:13.373Z,11.90
2023-05-21T01:32:13.334Z,11.80
2023-05-21T01:35:05.683Z,11.80
2023-05-21T01:37:59.322Z,11.80
2023-05-21T01:40:54.477Z,11.80
2023-05-21T01:43:45.172Z,11.70
2023-05-21T01:46:36.134Z,11.60
2023-05-21T01:49:24.695Z,11.60
2023-05-21T01:52:13.021Z,11.50
2023-05-21T01:55:01.351Z,11.50
2023-05-21T01:57:51.210Z,11.40
2023-05-21T02:00:40.047Z,11.30
2023-05-21T02:03:31.271Z,11.30
2023-05-21T02:06:19.376Z,11.20
2023-05-21T02:09:07.175Z,11.20
2023-05-21T02:11:54.658Z,11.30
2023-05-21T02:14:43.756Z,11.30
2023-05-21T02:17:33.803Z,11.30
2023-05-21T02:20:23.136Z,11.30
2023-05-21T02:23:11.392Z,11.30
2023-05-21T02:25:59.065Z,11.40
2023-05-21T02:28:46.580Z,11.40
2023-05-21T02:31:36.142Z,11.30
2023-05-21T02:34:24.932Z,11.30
2023-05-21T02:37:12.797Z,11.20
2023-05-21T02:40:00.800Z,11.20
2023-05-21T02:42:48.508Z,11.10
2023-05-21T02:45:40.744Z,11.10
2023-05-21T02:48:30.507Z,11.00
2023-05-21T02:51:18.135Z,10.90
2023-05-21T02:54:06.195Z,10.90
2023-05-21T02:56:54.158Z,10.90
2023-05-21T02:59:43.299Z,10.90
2023-05-21T03:02:31.249Z,10.90
2023-05-21T03:05:20.198Z,11.00
2023-05-21T03:08:07.574Z,11.00
2023-05-21T03:10:55.290Z,11.00
2023-05-21T03:13:43.813Z,11.10
2023-05-21T03:16:34.734Z,11.20
2023-05-21T03:19:22.896Z,11.20
2023-05-21T03:22:12.442Z,11.30
2023-05-21T03:25:01.815Z,11.40
2023-05-21T03:27:49.811Z,11.40
2023-05-21T03:30:57.534Z,11.50
2023-05-21T03:34:08.678Z,11.60
2023-05-21T03:36:56.384Z,11.70
2023-05-21T03:39:45.905Z,11.80
2023-05-21T03:42:33.532Z,11.90
2023-05-21T03:45:21.177Z,12.00
2023-05-21T03:48:28.809Z,12.20
2023-05-21T03:51:18.082Z,12.30
2023-05-21T03:54:06.348Z,12.40
2023-05-21T03:56:57.128Z,12.50
2023-05-21T03:59:45.940Z,12.60
2023-05-21T04:02:33.724Z,12.70
2023-05-21T04:05:21.557Z,12.70
2023-05-21T04:08:09.256Z,12.80
2023-05-21T04:10:58.092Z,13.00
2023-05-21T04:13:48.250Z,13.00
2023-05-21T04:16:38.813Z,13.10
2023-05-21T04:19:26.598Z,13.20
2023-05-21T04:22:14.029Z,13.30
2023-05-21T04:25:02.378Z,13.30
2023-05-21T04:27:55.436Z,13.40
2023-05-21T04:30:46.039Z,13.50
2023-05-21T04:33:33.682Z,13.60
2023-05-21T04:36:21.135Z,13.60
2023-05-21T04:39:08.730Z,13.70
2023-05-21T04:41:57.055Z,13.80
2023-05-21T04:44:45.697Z,13.90
2023-05-21T04:47:35.732Z,14.00
2023-05-21T04:50:24.480Z,14.10
2023-05-21T04:53:12.353Z,14.30
2023-05-21T04:56:00.493Z,14.40
2023-05-21T04:58:49.291Z,14.50
2023-05-21T05:01:38.662Z,14.50
2023-05-21T05:04:28.052Z,14.60
2023-05-21T05:07:17.116Z,14.70
2023-05-21T05:10:05.492Z,14.80
2023-05-21T05:12:53.871Z,14.90
2023-05-21T05:15:41.974Z,15.00
2023-05-21T05:18:30.509Z,15.10
2023-05-21T05:21:19.582Z,15.20
2023-05-21T05:24:07.802Z,15.30
2023-05-21T05:26:55.974Z,15.40
2023-05-21T05:29:43.544Z,15.50
2023-05-21T05:32:31.039Z,15.60
2023-05-21T05:35:18.894Z,15.80
2023-05-21T05:38:09.042Z,15.90
2023-05-21T05:40:57.298Z,16.00
2023-05-21T05:43:45.127Z,16.10
2023-05-21T05:46:34.087Z,16.20
2023-05-21T05:49:22.077Z,16.40
2023-05-21T05:52:10.329Z,16.50
2023-05-21T05:54:59.158Z,16.60
2023-05-21T05:57:46.904Z,16.80
2023-05-21T06:00:36.820Z,16.90
2023-05-21T06:03:24.995Z,17.00
2023-05-21T06:06:13.977Z,17.20
2023-05-21T06:09:01.806Z,17.30
2023-05-21T06:11:51.183Z,17.50
2023-05-21T06:14:38.787Z,17.60
2023-05-21T06:17:26.258Z,17.70
2023-05-21T06:20:14.801Z,17.90
2023-05-21T06:23:02.667Z,17.90
2023-05-21T06:25:50.663Z,18.00
2023-05-21T06:28:41.265Z,18.20
2023-05-21T06:31:33.135Z,18.30
2023-05-21T06:34:21.228Z,18.40
2023-05-21T06:37:08.984Z,18.60
2023-05-21T06:39:56.560Z,18.70
2023-05-21T06:42:44.131Z,18.90
2023-05-21T06:45:42.024Z,19.00
2023-05-21T06:48:54.319Z,19.10
2023-05-21T06:51:41.848Z,19.20
2023-05-21T06:54:30.092Z,19.30
2023-05-21T06:57:17.876Z,19.40
2023-05-21T07:00:06.279Z,19.50
2023-05-21T07:02:57.257Z,19.60
2023-05-21T07:05:46.487Z,19.70
2023-05-21T07:08:34.470Z,19.80
2023-05-21T07:11:22.492Z,20.00
2023-05-21T07:14:10.439Z,20.20
2023-05-21T07:16:59.173Z,20.40
2023-05-21T07:19:48.190Z,20.50
2023-05-21T07:22:35.949Z,20.70
2023-05-21T07:25:23.841Z,21.00
2023-05-21T07:28:11.615Z,21.20
2023-05-21T07:30:59.292Z,21.40
2023-05-21T07:33:53.197Z,21.50
2023-05-21T07:36:46.805Z,21.70
2023-05-21T07:39:34.606Z,21.90
2023-05-21T07:42:22.121Z,22.00
2023-05-21T07:45:10.305Z,22.20
2023-05-21T07:48:02.846Z,22.50
2023-05-21T07:50:53.048Z,22.50
2023-05-21T07:53:42.148Z,22.70
2023-05-21T07:56:32.500Z,22.70
2023-05-21T07:59:20.444Z,23.00
2023-05-21T08:02:08.476Z,23.00
2023-05-21T08:04:56.241Z,23.00
2023-05-21T08:07:45.479Z,23.20
2023-05-21T08:10:34.356Z,23.30
2023-05-21T08:13:21.759Z,23.40
2023-05-21T08:16:09.927Z,23.60
2023-05-21T08:18:57.842Z,23.60
2023-05-21T08:21:45.393Z,23.80
2023-05-21T08:24:33.296Z,23.90
2023-05-21T08:27:22.495Z,24.00
2023-05-21T08:30:11.650Z,24.20
2023-05-21T08:32:59.738Z,24.40
2023-05-21T08:35:48.929Z,24.50
2023-05-21T08:38:49.109Z,24.70
2023-05-21T08:41:49.643Z,24.70
2023-05-21T08:44:42.254Z,24.90
2023-05-21T08:47:33.836Z,24.90
2023-05-21T08:50:23.062Z,25.00
2023-05-21T08:53:19.942Z,25.00
2023-05-21T08:56:16.506Z,25.10
2023-05-21T08:59:09.504Z,25.20
2023-05-21T09:01:59.978Z,25.40
2023-05-21T09:04:58.860Z,25.60
2023-05-21T09:07:52.807Z,25.60
2023-05-21T09:10:54.180Z,25.70
2023-05-21T09:13:47.449Z,25.80
2023-05-21T09:16:43.264Z,26.00
2023-05-21T09:19:33.286Z,26.20
2023-05-21T09:22:25.254Z,26.20
2023-05-21T09:25:14.379Z,26.20
2023-05-21T09:28:02.174Z,26.20
2023-05-21T09:30:54.210Z,26.30
2023-05-21T09:33:47.778Z,26.70
2023-05-21T09:36:39.788Z,26.90
2023-05-21T09:39:31.038Z,26.90
2023-05-21T09:42:23.241Z,26.70
2023-05-21T09:45:12.299Z,26.70
2023-05-21T09:48:00.941Z,26.90
2023-05-21T09:50:48.737Z,27.10
2023-05-21T09:53:37.616Z,27.20
2023-05-21T09:56:26.282Z,27.20
2023-05-21T09:59:13.904Z,27.30
2023-05-21T10:02:01.616Z,27.30
2023-05-21T10:04:51.620Z,27.40
2023-05-21T10:07:42.461Z,27.60
2023-05-21T10:10:32.960Z,27.90
2023-05-21T10:13:23.244Z,28.00
2023-05-21T10:16:11.464Z,28.10
2023-05-21T10:19:00.210Z,28.30
2023-05-21T10:21:48.245Z,28.40
2023-05-21T10:24:37.437Z,28.50
2023-05-21T10:27:27.871Z,28.60
2023-05-21T10:30:17.094Z,28.70
2023-05-21T10:33:07.105Z,28.70
2023-05-21T10:35:55.908Z,28.80
2023-05-21T10:38:45.328Z,28.80
2023-05-21T10:41:43.512Z,28.70
2023-05-21T10:44:45.474Z,28.70
2023-05-21T10:47:48.493Z,28.80
2023-05-21T10:50:52.104Z,28.80
2023-05-21T10:53:56.129Z,28.90
2023-05-21T10:56:50.055Z,29.00
2023-05-21T10:59:43.496Z,28.90
2023-05-21T11:02:31.224Z,29.20
2023-05-21T11:05:35.814Z,29.50
2023-05-21T11:08:24.871Z,29.60
2023-05-21T11:11:13.192Z,29.70
2023-05-21T11:14:01.057Z,29.90
2023-05-21T11:16:50.480Z,29.80
2023-05-21T11:19:42.916Z,29.70
2023-05-21T11:22:30.846Z,29.80
2023-05-21T11:25:19.868Z,29.90
2023-05-21T11:28:09.616Z,30.10
2023-05-21T11:31:25.616Z,30.30
2023-05-21T11:34:21.995Z,30.40
2023-05-21T11:37:41.814Z,30.30
2023-05-21T11:40:31.092Z,30.10
2023-05-21T11:43:20.096Z,30.20
2023-05-21T11:46:08.043Z,30.10
2023-05-21T11:48:56.713Z,30.30
2023-05-21T11:51:46.339Z,30.20
2023-05-21T11:54:37.612Z,30.40
2023-05-21T11:57:30.843Z,30.60
2023-05-21T12:00:19.308Z,30.90
2023-05-21T12:03:08.576Z,31.00
2023-05-21T12:05:56.545Z,31.10
2023-05-21T12:08:45.875Z,31.10
2023-05-21T12:11:33.434Z,30.90
2023-05-21T12:14:23.424Z,30.60
2023-05-21T12:17:13.540Z,30.50
2023-05-21T12:20:06.985Z,30.50
2023-05-21T12:22:54.690Z,30.70
2023-05-21T12:25:43.608Z,31.00
2023-05-21T12:28:31.948Z,31.00
2023-05-21T12:31:19.533Z,30.90
2023-05-21T12:34:08.331Z,30.80
2023-05-21T12:36:55.817Z,30.70
2023-05-21T12:39:45.098Z,30.50
2023-05-21T12:42:35.180Z,30.70
2023-05-21T12:45:23.041Z,30.90
2023-05-21T12:48:12.670Z,31.20
2023-05-21T12:51:00.611Z,31.40
2023-05-21T12:53:48.814Z,31.70
2023-05-21T12:56:46.284Z,31.50
2023-05-21T12:59:46.526Z,31.20
2023-05-21T13:02:35.323Z,31.10
2023-05-21T13:05:22.846Z,31.10
2023-05-21T13:08:10.810Z,31.20
2023-05-21T13:10:58.456Z,31.20
2023-05-21T13:13:46.248Z,31.10
2023-05-21T13:16:36.115Z,30.80
2023-05-21T13:19:24.020Z,30.70
2023-05-21T13:22:11.744Z,30.60
2023-05-21T13:24:59.315Z,30.50
2023-05-21T13:27:47.353Z,30.30
2023-05-21T13:30:35.135Z,30.20
2023-05-21T13:33:24.281Z,30.00
2023-05-21T13:36:12.364Z,29.90
2023-05-21T13:38:59.966Z,30.00
2023-05-21T13:41:48.435Z,30.30
2023-05-21T13:44:36.724Z,30.60
2023-05-21T13:47:24.678Z,30.60
2023-05-21T13:50:14.107Z,30.50
2023-05-21T13:53:01.900Z,30.60
2023-05-21T13:55:50.120Z,30.90
2023-05-21T13:58:40.548Z,31.30
2023-05-21T14:01:27.931Z,31.50
2023-05-21T14:04:15.752Z,31.90
2023-05-21T14:07:05.672Z,32.10
2023-05-21T14:09:53.289Z,32.00
2023-05-21T14:12:42.201Z,31.70
2023-05-21T14:15:29.605Z,31.00
2023-05-21T14:18:17.224Z,30.40
2023-05-21T14:21:04.911Z,30.10
2023-05-21T14:23:54.691Z,29.90
2023-05-21T14:26:42.851Z,29.70
2023-05-21T14:29:30.601Z,29.60
2023-05-21T14:32:19.315Z,29.70
2023-05-21T14:35:07.443Z,29.90
2023-05-21T14:37:55.282Z,30.20
2023-05-21T14:40:44.648Z,30.50
2023-05-21T14:43:32.249Z,30.50
2023-05-21T14:46:19.806Z,30.70
2023-05-21T14:49:07.150Z,31.00
2023-05-21T14:51:54.586Z,30.80
2023-05-21T14:54:42.074Z,30.90
2023-05-21T14:57:30.903Z,31.00
2023-05-21T15:00:18.415Z,31.10
2023-05-21T15:03:06.291Z,31.00
2023-05-21T15:05:54.419Z,31.00
2023-05-21T15:08:41.971Z,30.90
2023-05-21T15:11:29.350Z,30.80
2023-05-21T15:14:18.279Z,30.80
2023-05-21T15:17:06.205Z,30.90
2023-05-21T15:19:53.928Z,31.20
2023-05-21T15:22:41.810Z,31.40
2023-05-21T15:25:29.333Z,31.70
2023-05-21T15:28:17.003Z,31.80
2023-05-21T15:31:06.118Z,31.90
2023-05-21T15:33:53.507Z,31.80
2023-05-21T15:36:41.060Z,31.70
2023-05-21T15:39:28.656Z,31.60
2023-05-21T15:42:16.935Z,31.50
2023-05-21T15:45:05.062Z,30.80
2023-05-21T15:47:54.013Z,30.10
2023-05-21T15:50:41.994Z,29.60
2023-05-21T15:53:29.746Z,29.10
2023-05-21T15:56:17.222Z,28.60
2023-05-21T15:59:04.954Z,28.30
2023-05-21T16:01:52.776Z,28.10
2023-05-21T16:04:42.237Z,28.10
2023-05-21T16:07:29.776Z,28.30
2023-05-21T16:10:17.426Z,28.50
2023-05-21T16:13:05.092Z,28.90
2023-05-21T16:15:52.911Z,29.10
2023-05-21T16:18:40.357Z,29.10
2023-05-21T16:21:29.803Z,29.00
2023-05-21T16:24:17.433Z,28.80
2023-05-21T16:27:05.215Z,28.80
2023-05-21T16:29:52.583Z,28.50
2023-05-21T16:32:40.897Z,28.30
2023-05-21T16:35:28.749Z,28.10
2023-05-21T16:38:17.806Z,28.10
2023-05-21T16:41:05.717Z,28.20
2023-05-21T16:43:54.445Z,28.30
2023-05-21T16:46:42.377Z,28.30
2023-05-21T16:49:29.780Z,28.30
2023-05-21T16:52:17.229Z,28.10
2023-05-21T16:55:07.332Z,27.90
2023-05-21T16:57:54.783Z,27.70
2023-05-21T17:00:42.461Z,27.50
2023-05-21T17:03:32.041Z,27.30
2023-05-21T17:06:19.782Z,27.10
2023-05-21T17:09:07.429Z,26.90
2023-05-21T17:11:56.268Z,26.80
2023-05-21T17:14:43.653Z,26.80
2023-05-21T17:17:31.325Z,26.60
2023-05-21T17:20:19.792Z,26.30
2023-05-21T17:23:07.389Z,25.80
2023-05-21T17:25:54.827Z,25.30
2023-05-21T17:28:43.941Z,24.90
2023-05-21T17:31:32.407Z,24.60
2023-05-21T17:34:20.250Z,24.20
2023-05-21T17:37:07.761Z,23.90
2023-05-21T17:39:57.738Z,23.70
2023-05-21T17:42:45.346Z,23.70
2023-05-21T17:45:34.374Z,23.90
2023-05-21T17:48:22.306Z,24.10
2023-05-21T17:51:09.993Z,24.10
2023-05-21T17:53:57.824Z,24.00
2023-05-21T17:56:46.525Z,23.80
2023-05-21T17:59:34.714Z,23.50
2023-05-21T18:02:24.652Z,23.10
2023-05-21T18:05:12.316Z,22.80
2023-05-21T18:08:01.184Z,22.50
2023-05-21T18:10:49.041Z,22.20
2023-05-21T18:13:36.783Z,21.90
2023-05-21T18:16:24.319Z,21.70
2023-05-21T18:19:13.676Z,21.50
2023-05-21T18:22:01.365Z,21.20
2023-05-21T18:24:48.952Z,21.00
2023-05-21T18:27:36.310Z,20.80
2023-05-21T18:30:24.193Z,20.70
2023-05-21T18:33:12.685Z,20.50
2023-05-21T18:36:01.610Z,20.30
2023-05-21T18:38:49.346Z,20.10
2023-05-21T18:41:37.577Z,19.90
2023-05-21T18:44:25.546Z,19.70
2023-05-21T18:47:13.763Z,19.60
2023-05-21T18:50:01.674Z,19.40
2023-05-21T18:52:53.507Z,19.20
2023-05-21T18:55:40.990Z,19.10
2023-05-21T18:58:29.418Z,18.90
2023-05-21T19:01:18.179Z,18.80
2023-05-21T19:04:06.374Z,18.60
2023-05-21T19:06:54.399Z,18.50
2023-05-21T19:09:43.166Z,18.40
2023-05-21T19:12:31.770Z,18.30
2023-05-21T19:15:20.141Z,18.10
2023-05-21T19:18:08.482Z,18.00
2023-05-21T19:20:56.313Z,17.90
2023-05-21T19:23:52.808Z,17.80
2023-05-21T19:26:42.532Z,17.70
2023-05-21T19:29:29.933Z,17.50
2023-05-21T19:32:17.775Z,17.40
2023-05-21T19:35:05.767Z,17.30
2023-05-21T19:37:54.670Z,17.20
2023-05-21T19:40:42.542Z,17.10
2023-05-21T19:43:31.910Z,16.90
2023-05-21T19:46:20.651Z,16.80
2023-05-21T19:49:10.534Z,16.70
2023-05-21T19:51:58.349Z,16.60
2023-05-21T19:54:46.128Z,16.50
2023-05-21T19:57:33.886Z,16.40
2023-05-21T20:00:27.538Z,16.40
2023-05-21T20:03:17.267Z,16.30
2023-05-21T20:06:05.135Z,16.30
2023-05-21T20:08:52.825Z,16.20
2023-05-21T20:11:42.198Z,16.10
2023-05-21T20:14:33.582Z,16.00
2023-05-21T20:17:22.740Z,15.90
2023-05-21T20:20:12.045Z,15.90
2023-05-21T20:23:03.339Z,15.80
2023-05-21T20:25:53.861Z,15.80
2023-05-21T20:28:41.582Z,15.70
2023-05-21T20:31:29.668Z,15.70
2023-05-21T20:34:20.736Z,15.60
2023-05-21T20:37:08.204Z,15.60
2023-05-21T20:39:58.120Z,15.60
2023-05-21T20:42:46.289Z,15.50
2023-05-21T20:45:36.227Z,15.50
2023-05-21T20:48:24.242Z,15.50
2023-05-21T20:51:13.564Z,15.40
2023-05-21T20:54:01.368Z,15.40
2023-05-21T20:56:51.032Z,15.40
2023-05-21T20:59:38.734Z,15.30
2023-05-21T21:02:26.999Z,15.30
2023-05-21T21:05:14.642Z,15.30
2023-05-21T21:08:03.570Z,15.30
2023-05-21T21:10:51.176Z,15.30
2023-05-21T21:13:39.355Z,15.20
2023-05-21T21:16:26.907Z,15.30
2023-05-21T21:19:14.292Z,15.20
2023-05-21T21:22:02.336Z,15.20
2023-05-21T21:24:51.632Z,15.20
2023-05-21T21:27:39.242Z,15.20
2023-05-21T21:30:27.216Z,15.20
2023-05-21T21:33:16.388Z,15.10
2023-05-21T21:36:04.351Z,15.10
2023-05-21T21:38:52.144Z,15.10
2023-05-21T21:41:42.138Z,15.00
2023-05-21T21:44:29.897Z,15.00
2023-05-21T21:47:17.361Z,15.00
2023-05-21T21:50:05.306Z,15.00
2023-05-21T21:52:57.341Z,15.00
2023-05-21T21:55:45.487Z,15.00
2023-05-21T21:58:34.334Z,14.90
2023-05-21T22:01:22.018Z,14.90
2023-05-21T22:04:09.449Z,15.00
2023-05-21T22:06:57.380Z,15.00
2023-05-21T22:09:45.203Z,15.00
2023-05-21T22:12:34.146Z,14.90
2023-05-21T22:15:27.439Z,14.90
2023-05-21T22:18:18.454Z,14.90
2023-05-21T22:21:10.578Z,14.90
2023-05-21T22:23:58.471Z,14.90
2023-05-21T22:26:46.112Z,14.90
2023-05-21T22:29:33.603Z,14.80
2023-05-21T22:32:22.612Z,14.80
2023-05-21T22:35:10.673Z,14.80
2023-05-21T22:37:58.940Z,14.70
2023-05-21T22:40:46.431Z,14.70
2023-05-21T22:43:34.894Z,14.70
2023-05-21T22:46:22.359Z,14.60
2023-05-21T22:49:11.356Z,14.60
2023-05-21T22:52:05.023Z,14.50
2023-05-21T22:54:53.696Z,14.40
2023-05-21T22:57:40.939Z,14.30
2023-05-21T23:00:29.250Z,14.30
2023-05-21T23:03:17.563Z,14.20
2023-05-21T23:06:06.673Z,14.10
2023-05-21T23:08:54.427Z,14.10
2023-05-21T23:11:42.186Z,14.00
2023-05-21T23:14:29.884Z,14.00
2023-05-21T23:17:17.439Z,13.90
2023-05-21T23:20:06.091Z,13.90
2023-05-21T23:22:54.862Z,13.80
2023-05-21T23:25:42.653Z,13.70
2023-05-21T23:28:30.367Z,13.70
2023-05-21T23:31:18.128Z,13.60
2023-05-21T23:34:06.302Z,13.60
2023-05-21T23:36:53.920Z,13.60
2023-05-21T23:39:44.345Z,13.60
2023-05-21T23:42:32.298Z,13.50
2023-05-21T23:45:19.799Z,13.40
2023-05-21T23:48:08.225Z,13.30
2023-05-21T23:50:56.066Z,13.30
2023-05-21T23:53:43.563Z,13.20
2023-05-21T23:56:32.599Z,13.10
2023-05-21T23:59:20.256Z,13.00
